Time;durP1;ratioP1;P1;durP2;ratioP2;P2;SDS_P1;SDS_P2;PMS_P1;PMS_P2;Temp;Humidity;BMP_temperature;BMP_pressure;BME280_temperature;BME280_humidity;BME280_pressure;Samples;Min_cycle;Max_cycle;Signal;HPM_P1;HPM_P2
2022/03/16 00:01:48;;;;;;;16.20;8.75;;;10.60;85.60;;;;;;5004167;28;20030;-64
2022/03/16 00:04:14;;;;;;;17.58;9.38;;;10.70;85.50;;;;;;5016165;28;20128;-64
2022/03/16 00:06:40;;;;;;;20.48;10.18;;;10.60;85.40;;;;;;5011267;28;20030;-65
2022/03/16 00:09:05;;;;;;;15.63;9.48;;;10.60;85.70;;;;;;5015261;28;20050;-63
2022/03/16 00:11:31;;;;;;;20.35;10.25;;;10.60;85.80;;;;;;5014289;28;20038;-64
2022/03/16 00:13:57;;;;;;;14.52;9.20;;;10.50;86.10;;;;;;5014286;28;20022;-64
2022/03/16 00:16:23;;;;;;;17.60;9.30;;;10.50;86.10;;;;;;5013208;28;20038;-65
2022/03/16 00:18:48;;;;;;;17.35;9.38;;;10.50;86.20;;;;;;4998326;28;20050;-64
2022/03/16 00:21:14;;;;;;;16.92;9.98;;;10.50;86.40;;;;;;5009424;28;20026;-64
2022/03/16 00:23:39;;;;;;;15.77;9.48;;;10.50;86.50;;;;;;5005039;28;20084;-64
2022/03/16 00:26:05;;;;;;;15.80;10.02;;;10.50;86.60;;;;;;5012038;28;20496;-64
2022/03/16 00:28:30;;;;;;;16.40;9.65;;;10.50;87.30;;;;;;5010791;28;20042;-64
2022/03/16 00:30:56;;;;;;;15.80;9.90;;;10.40;87.20;;;;;;4998432;28;20033;-64
2022/03/16 00:33:21;;;;;;;16.83;10.23;;;10.40;87.50;;;;;;4994687;28;20529;-64
2022/03/16 00:35:47;;;;;;;17.85;10.30;;;10.40;87.80;;;;;;5004391;28;20028;-64
2022/03/16 00:38:14;;;;;;;17.50;11.18;;;10.40;88.40;;;;;;5008755;28;20053;-64
2022/03/16 00:40:40;;;;;;;19.38;9.85;;;10.40;88.20;;;;;;5007623;28;20026;-64
2022/03/16 00:43:05;;;;;;;18.45;10.15;;;10.30;88.20;;;;;;5005028;28;20026;-63
2022/03/16 00:45:31;;;;;;;20.50;10.35;;;10.30;88.50;;;;;;5005851;28;20036;-63
2022/03/16 00:47:56;;;;;;;17.48;10.25;;;10.30;89.10;;;;;;5004143;28;20478;-63
2022/03/16 00:50:22;;;;;;;21.05;11.18;;;10.20;89.10;;;;;;5010435;28;20104;-63
2022/03/16 00:52:47;;;;;;;19.10;11.38;;;10.20;89.50;;;;;;5005027;28;20038;-63
2022/03/16 00:55:13;;;;;;;17.83;10.77;;;10.20;89.70;;;;;;4999302;28;20075;-63
2022/03/16 00:57:38;;;;;;;21.00;11.85;;;10.20;89.80;;;;;;5000940;28;20025;-64
2022/03/16 01:00:05;;;;;;;22.92;13.88;;;10.10;90.10;;;;;;5007303;28;20500;-64
2022/03/16 01:02:31;;;;;;;19.92;11.27;;;10.10;90.40;;;;;;5004266;28;20068;-63
2022/03/16 01:04:56;;;;;;;20.83;11.18;;;10.00;90.50;;;;;;4995645;28;20062;-63
2022/03/16 01:07:22;;;;;;;16.55;11.00;;;10.00;90.50;;;;;;5009441;28;20028;-63
2022/03/16 01:09:47;;;;;;;16.60;11.25;;;10.00;90.80;;;;;;4995657;28;20038;-63
2022/03/16 01:12:13;;;;;;;20.30;11.77;;;10.00;90.90;;;;;;5008413;28;20069;-63
2022/03/16 01:14:39;;;;;;;18.60;11.77;;;9.90;90.90;;;;;;5007475;28;20061;-64
2022/03/16 01:17:04;;;;;;;24.80;12.20;;;9.90;91.10;;;;;;5016515;28;20543;-64
2022/03/16 01:19:31;;;;;;;21.45;12.73;;;9.90;91.30;;;;;;5032897;28;20068;-64
2022/03/16 01:21:57;;;;;;;24.80;11.73;;;9.90;91.40;;;;;;5012059;28;20505;-64
2022/03/16 01:24:22;;;;;;;20.85;11.63;;;9.70;91.40;;;;;;5007948;28;20038;-63
2022/03/16 01:26:48;;;;;;;21.77;11.73;;;9.70;91.60;;;;;;5005405;28;20045;-64
2022/03/16 01:29:13;;;;;;;22.60;13.32;;;9.70;91.80;;;;;;5005714;28;20162;-63
2022/03/16 01:31:39;;;;;;;23.73;12.68;;;9.70;92.10;;;;;;5010325;28;20493;-64
2022/03/16 01:34:04;;;;;;;22.75;11.70;;;9.60;92.30;;;;;;5011105;28;20018;-64
2022/03/16 01:36:30;;;;;;;23.52;11.77;;;9.60;92.10;;;;;;4995318;28;20077;-63
2022/03/16 01:38:55;;;;;;;24.88;11.98;;;9.60;92.10;;;;;;4992756;28;20041;-64
2022/03/16 01:41:21;;;;;;;21.85;12.95;;;9.60;92.20;;;;;;4993575;28;20026;-64
2022/03/16 01:43:46;;;;;;;21.95;12.05;;;9.60;92.30;;;;;;5008107;28;20113;-64
2022/03/16 01:46:12;;;;;;;18.85;11.80;;;9.60;92.40;;;;;;5001884;28;20110;-64
2022/03/16 01:48:37;;;;;;;24.10;12.70;;;9.60;92.50;;;;;;4995893;28;20037;-64
2022/03/16 01:51:04;;;;;;;18.65;11.95;;;9.50;92.80;;;;;;5010224;28;20540;-64
2022/03/16 01:53:29;;;;;;;24.15;12.82;;;9.50;92.70;;;;;;5011213;28;20022;-64
2022/03/16 01:55:55;;;;;;;23.80;13.43;;;9.50;92.70;;;;;;5006049;28;20180;-64
2022/03/16 01:58:20;;;;;;;22.52;11.60;;;9.50;92.80;;;;;;5011931;28;20033;-64
2022/03/16 02:00:46;;;;;;;24.55;11.75;;;9.50;92.90;;;;;;5005590;28;20129;-64
2022/03/16 02:03:11;;;;;;;25.73;12.18;;;9.40;92.90;;;;;;4999966;28;20042;-64
2022/03/16 02:05:38;;;;;;;20.80;12.40;;;9.40;92.90;;;;;;5019841;28;20038;-64
2022/03/16 02:08:05;;;;;;;21.92;11.70;;;9.40;93.40;;;;;;5009398;28;20033;-64
2022/03/16 02:10:31;;;;;;;25.08;12.30;;;9.30;93.40;;;;;;5010145;28;20097;-64
2022/03/16 02:12:57;;;;;;;21.08;12.77;;;9.30;93.40;;;;;;4999619;28;20394;-64
2022/03/16 02:15:23;;;;;;;23.40;12.93;;;9.30;93.70;;;;;;4999067;28;20037;-64
2022/03/16 02:17:50;;;;;;;22.25;12.65;;;9.30;93.80;;;;;;4992465;28;20030;-64
2022/03/16 02:20:17;;;;;;;25.23;13.18;;;9.20;94.00;;;;;;4998867;28;20113;-64
2022/03/16 02:22:53;;;;;;;25.88;12.05;;;9.20;94.00;;;;;;4992408;28;20031;-63
2022/03/16 02:25:18;;;;;;;21.33;12.27;;;9.20;94.00;;;;;;4998198;28;20036;-62
2022/03/16 02:27:44;;;;;;;21.48;11.10;;;9.20;93.90;;;;;;5011665;28;20025;-63
2022/03/16 02:30:10;;;;;;;21.17;11.10;;;9.20;94.00;;;;;;5004537;28;20114;-63
2022/03/16 02:32:35;;;;;;;23.77;12.23;;;9.20;94.00;;;;;;4994734;28;20029;-63
2022/03/16 02:35:02;;;;;;;21.10;12.75;;;9.20;94.10;;;;;;4997068;28;20034;-63
2022/03/16 02:37:27;;;;;;;23.30;12.13;;;9.20;94.20;;;;;;5007675;28;20128;-63
2022/03/16 02:39:54;;;;;;;25.20;12.88;;;9.10;94.20;;;;;;4991971;28;20106;-63
2022/03/16 02:42:20;;;;;;;23.40;11.98;;;9.10;94.20;;;;;;4992621;28;20390;-63
2022/03/16 02:44:46;;;;;;;22.73;13.20;;;9.20;94.20;;;;;;5011578;28;20022;-64
2022/03/16 02:47:11;;;;;;;24.77;13.00;;;9.10;94.50;;;;;;5010078;28;20477;-64
2022/03/16 02:49:37;;;;;;;23.95;12.63;;;9.00;94.70;;;;;;4993307;28;20149;-64
2022/03/16 02:52:09;;;;;;;23.83;13.90;;;9.00;94.90;;;;;;5006034;28;20022;-64
2022/03/16 02:54:35;;;;;;;29.35;14.50;;;8.90;94.80;;;;;;4994188;28;20038;-64
2022/03/16 02:57:01;;;;;;;20.20;12.35;;;8.90;95.00;;;;;;4991229;28;20519;-63
2022/03/16 02:59:27;;;;;;;23.40;13.18;;;8.90;95.00;;;;;;4993108;28;20038;-63
2022/03/16 03:01:53;;;;;;;25.15;12.35;;;8.80;94.90;;;;;;5004162;28;20029;-63
2022/03/16 03:04:19;;;;;;;21.10;12.85;;;8.90;94.90;;;;;;5009754;28;20045;-63
2022/03/16 03:06:44;;;;;;;21.13;11.88;;;8.90;94.90;;;;;;4998215;28;20443;-63
2022/03/16 03:09:10;;;;;;;18.90;11.32;;;8.90;95.00;;;;;;4997821;28;20050;-64
2022/03/16 03:11:35;;;;;;;22.02;12.48;;;8.90;95.00;;;;;;5002620;28;20025;-64
2022/03/16 03:14:01;;;;;;;21.77;12.20;;;8.80;95.00;;;;;;5005973;28;20026;-63
2022/03/16 03:16:26;;;;;;;22.27;12.77;;;8.90;95.10;;;;;;5010134;28;20362;-63
2022/03/16 03:18:52;;;;;;;21.17;13.40;;;8.80;95.10;;;;;;5010325;28;20021;-63
2022/03/16 03:21:17;;;;;;;22.58;12.15;;;8.80;95.30;;;;;;5009725;28;20045;-63
2022/03/16 03:23:43;;;;;;;26.20;12.63;;;8.80;95.30;;;;;;5008010;28;20557;-63
2022/03/16 03:26:08;;;;;;;22.48;12.07;;;8.70;95.40;;;;;;4997718;28;20321;-64
2022/03/16 03:28:34;;;;;;;22.13;12.55;;;8.70;95.50;;;;;;5026080;28;20355;-64
2022/03/16 03:30:59;;;;;;;23.23;12.52;;;8.70;95.50;;;;;;5009829;28;20049;-63
2022/03/16 03:33:25;;;;;;;20.60;12.40;;;8.70;95.60;;;;;;5010299;28;20034;-63
2022/03/16 03:35:50;;;;;;;22.23;12.73;;;8.70;95.50;;;;;;5009665;28;20050;-64
2022/03/16 03:38:16;;;;;;;23.95;13.88;;;8.70;95.50;;;;;;5025406;28;20559;-64
2022/03/16 03:40:42;;;;;;;23.42;12.73;;;8.70;95.50;;;;;;5009693;28;20116;-64
2022/03/16 03:43:08;;;;;;;23.52;12.23;;;8.70;95.50;;;;;;5009223;28;20034;-63
2022/03/16 03:45:33;;;;;;;21.50;12.18;;;8.70;95.50;;;;;;5009735;28;20029;-63
2022/03/16 03:47:59;;;;;;;20.95;12.05;;;8.70;95.60;;;;;;4998112;28;20026;-63
2022/03/16 03:50:24;;;;;;;22.88;14.05;;;8.70;95.60;;;;;;4999880;28;20033;-64
2022/03/16 03:52:50;;;;;;;23.02;12.90;;;8.60;95.60;;;;;;5005305;28;20041;-63
2022/03/16 03:55:16;;;;;;;25.58;13.68;;;8.60;95.70;;;;;;4991227;28;20036;-63
2022/03/16 03:57:41;;;;;;;25.50;13.23;;;8.50;95.80;;;;;;5008144;28;20442;-63
2022/03/16 04:00:07;;;;;;;20.83;12.90;;;8.60;95.80;;;;;;5002803;28;20034;-64
2022/03/16 04:02:33;;;;;;;23.98;13.43;;;8.50;95.80;;;;;;5010715;28;20045;-63
2022/03/16 04:05:01;;;;;;;27.48;13.40;;;8.50;95.90;;;;;;5003830;28;20109;-64
2022/03/16 04:07:26;;;;;;;24.38;13.35;;;8.40;95.80;;;;;;4996571;28;20046;-64
2022/03/16 04:09:53;;;;;;;25.35;12.57;;;8.40;95.90;;;;;;4994613;28;20041;-64
2022/03/16 04:12:18;;;;;;;20.60;12.32;;;8.40;96.00;;;;;;5005516;28;20034;-64
2022/03/16 04:14:44;;;;;;;31.23;13.50;;;8.40;96.00;;;;;;4994931;28;20455;-64
2022/03/16 04:17:09;;;;;;;27.75;15.27;;;8.40;96.00;;;;;;5009668;28;20505;-64
2022/03/16 04:19:35;;;;;;;26.95;13.95;;;8.30;96.10;;;;;;5014281;28;20045;-64
2022/03/16 04:22:00;;;;;;;23.65;14.68;;;8.30;96.20;;;;;;5010026;28;20168;-64
2022/03/16 04:24:26;;;;;;;30.05;14.88;;;8.20;96.20;;;;;;4994321;28;20065;-63
2022/03/16 04:26:51;;;;;;;25.83;13.85;;;8.20;96.30;;;;;;5006697;28;20473;-63
2022/03/16 04:29:17;;;;;;;29.58;13.90;;;8.20;96.30;;;;;;5010995;28;20037;-63
2022/03/16 04:31:42;;;;;;;25.95;13.60;;;8.10;96.30;;;;;;4996923;28;20559;-63
2022/03/16 04:34:08;;;;;;;28.70;16.65;;;8.10;96.30;;;;;;5002997;28;20030;-64
2022/03/16 04:36:33;;;;;;;28.30;15.45;;;8.10;96.30;;;;;;5002542;28;20030;-64
2022/03/16 04:38:59;;;;;;;29.38;15.57;;;8.10;96.30;;;;;;4994379;28;20018;-63
2022/03/16 04:41:24;;;;;;;29.35;14.13;;;8.10;96.40;;;;;;5002189;28;20036;-63
2022/03/16 04:43:50;;;;;;;27.90;14.57;;;8.10;96.50;;;;;;4993678;28;20027;-64
2022/03/16 04:46:15;;;;;;;29.40;14.57;;;8.10;96.50;;;;;;4997418;28;20101;-64
2022/03/16 04:48:41;;;;;;;29.35;15.43;;;8.10;96.50;;;;;;5013309;28;20034;-64
2022/03/16 04:51:06;;;;;;;28.00;14.52;;;8.00;96.50;;;;;;5004343;28;20030;-64
2022/03/16 04:53:32;;;;;;;25.90;15.18;;;8.00;96.50;;;;;;4993954;28;20033;-64
2022/03/16 04:55:58;;;;;;;28.95;14.90;;;8.00;96.50;;;;;;4995849;28;20038;-64
2022/03/16 04:58:23;;;;;;;28.35;15.10;;;8.00;96.60;;;;;;4994092;28;20073;-64
2022/03/16 05:00:49;;;;;;;27.10;14.55;;;8.00;96.60;;;;;;5005021;28;20034;-64
2022/03/16 05:03:14;;;;;;;28.58;16.63;;;8.00;96.60;;;;;;4993248;28;20042;-64
2022/03/16 05:05:40;;;;;;;29.85;16.02;;;7.90;96.60;;;;;;4996521;28;20040;-63
2022/03/16 05:08:05;;;;;;;29.05;15.43;;;7.90;96.70;;;;;;5012614;28;20022;-65
2022/03/16 05:10:31;;;;;;;25.13;14.40;;;7.80;96.80;;;;;;5011824;28;20035;-64
2022/03/16 05:12:57;;;;;;;31.65;15.43;;;7.80;96.80;;;;;;4994770;28;20050;-64
2022/03/16 05:15:22;;;;;;;26.48;14.57;;;7.80;96.90;;;;;;4993765;28;20026;-64
2022/03/16 05:17:48;;;;;;;30.80;15.55;;;7.80;96.90;;;;;;5006839;28;20033;-64
2022/03/16 05:20:15;;;;;;;30.33;14.00;;;7.80;96.90;;;;;;5011874;28;20022;-64
2022/03/16 05:22:50;;;;;;;25.75;15.32;;;7.80;96.90;;;;;;5008252;28;20034;-64
2022/03/16 05:25:21;;;;;;;30.70;14.65;;;7.80;97.00;;;;;;4993241;28;20081;-64
2022/03/16 05:27:46;;;;;;;26.38;14.43;;;7.80;96.90;;;;;;4993488;28;20474;-64
2022/03/16 05:30:13;;;;;;;28.15;15.23;;;7.80;96.90;;;;;;5002871;28;20042;-64
2022/03/16 05:32:41;;;;;;;25.75;14.38;;;7.80;97.00;;;;;;5013085;28;20029;-63
2022/03/16 05:35:08;;;;;;;34.00;16.33;;;7.80;97.00;;;;;;5004975;28;20076;-63
2022/03/16 05:37:33;;;;;;;27.77;15.77;;;7.70;97.10;;;;;;4997045;28;20085;-64
2022/03/16 05:39:59;;;;;;;27.67;14.75;;;7.70;97.20;;;;;;5011612;28;20034;-63
2022/03/16 05:42:24;;;;;;;30.73;15.68;;;7.70;97.20;;;;;;5011115;28;20030;-64
2022/03/16 05:44:54;;;;;;;27.88;14.93;;;7.80;97.20;;;;;;5012609;28;20026;-63
2022/03/16 05:47:20;;;;;;;27.27;14.93;;;7.80;97.10;;;;;;4994301;28;20034;-63
2022/03/16 05:49:46;;;;;;;30.65;16.52;;;7.70;97.20;;;;;;5012369;28;20038;-64
2022/03/16 05:52:12;;;;;;;28.23;14.60;;;7.80;97.20;;;;;;5005669;28;20022;-63
2022/03/16 05:54:38;;;;;;;27.05;15.38;;;7.80;97.20;;;;;;5012447;28;20030;-65
2022/03/16 05:57:03;;;;;;;31.30;16.42;;;7.80;97.20;;;;;;5008919;28;20474;-63
2022/03/16 05:59:29;;;;;;;26.90;15.20;;;7.80;97.10;;;;;;5011140;28;20037;-64
2022/03/16 06:01:54;;;;;;;30.30;17.45;;;7.80;97.30;;;;;;5004972;28;20018;-64
2022/03/16 06:04:20;;;;;;;31.23;17.17;;;7.70;97.30;;;;;;5000692;28;20111;-64
2022/03/16 06:06:45;;;;;;;33.28;18.90;;;7.70;97.30;;;;;;5008279;28;20036;-64
2022/03/16 06:09:11;;;;;;;27.63;16.30;;;7.70;97.40;;;;;;5011249;28;20067;-63
2022/03/16 06:11:39;;;;;;;32.17;16.05;;;7.70;97.40;;;;;;5010247;28;20030;-63
2022/03/16 06:14:04;;;;;;;32.92;17.08;;;7.70;97.40;;;;;;5004708;28;20026;-63
2022/03/16 06:16:29;;;;;;;29.02;15.98;;;7.60;97.40;;;;;;5001636;28;20084;-63
2022/03/16 06:18:55;;;;;;;29.95;16.45;;;7.60;97.50;;;;;;5003623;28;20021;-63
2022/03/16 06:21:21;;;;;;;29.75;16.75;;;7.60;97.50;;;;;;5008735;28;20092;-62
2022/03/16 06:23:46;;;;;;;35.42;18.00;;;7.60;97.60;;;;;;5000544;28;20060;-64
2022/03/16 06:26:12;;;;;;;32.33;16.38;;;7.60;97.60;;;;;;5006001;28;20346;-63
2022/03/16 06:28:37;;;;;;;27.17;17.00;;;7.60;97.70;;;;;;5008776;28;20125;-63
2022/03/16 06:31:03;;;;;;;30.77;17.42;;;7.60;97.70;;;;;;4997798;28;20065;-64
2022/03/16 06:33:28;;;;;;;33.25;18.10;;;7.60;97.80;;;;;;5002099;28;20040;-64
2022/03/16 06:35:54;;;;;;;30.20;16.55;;;7.60;97.80;;;;;;4996786;28;20049;-64
2022/03/16 06:38:19;;;;;;;31.30;16.60;;;7.60;97.80;;;;;;5001260;28;20041;-64
2022/03/16 06:40:45;;;;;;;37.13;17.98;;;7.60;97.90;;;;;;5006437;28;20026;-64
2022/03/16 06:43:10;;;;;;;30.90;18.55;;;7.60;97.80;;;;;;5009949;28;20080;-64
2022/03/16 06:45:36;;;;;;;32.33;17.38;;;7.60;97.90;;;;;;5000895;28;20033;-64
2022/03/16 06:48:02;;;;;;;29.95;18.08;;;7.70;97.90;;;;;;4998465;28;20040;-64
2022/03/16 06:50:28;;;;;;;33.55;17.67;;;7.70;98.00;;;;;;4994594;28;20054;-64
2022/03/16 06:52:55;;;;;;;30.77;16.67;;;7.80;98.00;;;;;;5008452;28;20018;-64
2022/03/16 06:55:21;;;;;;;32.10;17.75;;;7.70;98.10;;;;;;4991667;28;20129;-64
2022/03/16 06:57:46;;;;;;;32.25;17.35;;;7.70;98.20;;;;;;5001060;28;20110;-64
2022/03/16 07:00:14;;;;;;;33.42;18.02;;;7.80;98.10;;;;;;5008003;28;20488;-64
2022/03/16 07:02:55;;;;;;;33.88;17.80;;;7.80;98.30;;;;;;5000467;28;20093;-64
2022/03/16 07:05:24;;;;;;;32.55;17.67;;;7.80;98.30;;;;;;4992037;28;20113;-65
2022/03/16 07:07:50;;;;;;;35.03;16.90;;;7.80;98.20;;;;;;5005505;28;20033;-65
2022/03/16 07:10:15;;;;;;;28.67;16.48;;;7.90;98.50;;;;;;5005025;28;20129;-64
2022/03/16 07:12:41;;;;;;;35.58;16.80;;;7.90;98.40;;;;;;5006834;28;20022;-64
2022/03/16 07:15:07;;;;;;;28.02;16.08;;;7.90;98.30;;;;;;4991290;28;20030;-64
2022/03/16 07:17:33;;;;;;;29.80;15.98;;;8.00;98.20;;;;;;4999556;28;20454;-64
2022/03/16 07:19:58;;;;;;;30.42;16.33;;;8.10;98.10;;;;;;5005360;28;20049;-65
2022/03/16 07:22:24;;;;;;;36.15;18.08;;;8.10;98.00;;;;;;5009504;28;20026;-65
2022/03/16 07:24:49;;;;;;;27.42;15.55;;;8.20;98.00;;;;;;5009164;28;20590;-64
2022/03/16 07:27:15;;;;;;;25.45;16.23;;;8.20;97.90;;;;;;4993044;28;20027;-65
2022/03/16 07:29:40;;;;;;;29.80;17.75;;;8.20;98.00;;;;;;4991133;28;20042;-65
2022/03/16 07:32:07;;;;;;;29.40;17.77;;;8.20;97.90;;;;;;5011259;28;20450;-65
2022/03/16 07:34:32;;;;;;;29.15;16.60;;;8.30;98.10;;;;;;4999881;28;20113;-64
2022/03/16 07:36:58;;;;;;;31.58;17.92;;;8.20;97.90;;;;;;5010965;28;20109;-65
2022/03/16 07:39:23;;;;;;;31.90;17.00;;;8.20;98.00;;;;;;5001468;28;20413;-64
2022/03/16 07:41:49;;;;;;;31.15;17.92;;;8.30;97.90;;;;;;4994837;28;20038;-65
2022/03/16 07:44:14;;;;;;;26.90;15.27;;;8.30;98.00;;;;;;4994764;28;20034;-65
2022/03/16 07:46:40;;;;;;;28.92;17.27;;;8.30;97.80;;;;;;5002941;28;20030;-65
2022/03/16 07:49:06;;;;;;;29.92;16.45;;;8.40;97.80;;;;;;5000642;28;20038;-65
2022/03/16 07:51:32;;;;;;;33.17;18.98;;;8.30;97.60;;;;;;5002955;28;20030;-65
2022/03/16 07:53:57;;;;;;;27.58;17.88;;;8.20;97.60;;;;;;4994484;28;20109;-65
2022/03/16 07:56:23;;;;;;;29.65;18.63;;;8.10;97.40;;;;;;5007337;28;20045;-64
2022/03/16 07:58:48;;;;;;;30.45;17.15;;;8.00;97.50;;;;;;5006521;28;20152;-64
2022/03/16 08:01:14;;;;;;;28.50;16.73;;;7.90;97.60;;;;;;5002126;28;20022;-64
2022/03/16 08:03:39;;;;;;;27.33;16.75;;;7.70;97.70;;;;;;5013053;28;20089;-64
2022/03/16 08:06:05;;;;;;;34.95;19.40;;;7.60;97.80;;;;;;5012158;28;20045;-64
2022/03/16 08:08:31;;;;;;;33.45;17.95;;;7.50;98.00;;;;;;5013447;28;20121;-64
2022/03/16 08:10:58;;;;;;;29.15;17.65;;;7.40;98.20;;;;;;5007274;28;20076;-64
2022/03/16 08:13:24;;;;;;;32.65;17.17;;;7.30;98.40;;;;;;4994638;28;20041;-64
2022/03/16 08:15:49;;;;;;;27.30;16.08;;;7.30;98.70;;;;;;5011450;28;20041;-65
2022/03/16 08:18:15;;;;;;;30.58;16.58;;;7.30;98.70;;;;;;5014248;28;20038;-64
2022/03/16 08:20:40;;;;;;;29.30;16.23;;;7.30;98.70;;;;;;5008661;28;20501;-64
2022/03/16 08:23:06;;;;;;;25.83;14.70;;;7.40;98.60;;;;;;5011118;28;20033;-64
2022/03/16 08:25:32;;;;;;;31.02;15.75;;;7.40;98.50;;;;;;4997712;28;20026;-64
2022/03/16 08:27:59;;;;;;;29.35;16.33;;;7.50;98.40;;;;;;5013256;28;20038;-64
2022/03/16 08:30:25;;;;;;;27.35;15.23;;;7.50;98.60;;;;;;5012143;28;20038;-63
2022/03/16 08:32:50;;;;;;;31.60;17.75;;;7.40;98.40;;;;;;5011750;28;20117;-64
2022/03/16 08:35:16;;;;;;;34.67;19.92;;;7.40;98.60;;;;;;5011369;28;20033;-64
2022/03/16 08:37:41;;;;;;;30.83;16.90;;;7.40;98.60;;;;;;4997665;28;20038;-63
2022/03/16 08:40:07;;;;;;;32.67;17.50;;;7.40;98.70;;;;;;5006938;28;20607;-64
2022/03/16 08:42:34;;;;;;;27.88;15.65;;;7.40;98.70;;;;;;5006154;28;20053;-64
2022/03/16 08:45:01;;;;;;;29.98;17.30;;;7.40;98.80;;;;;;5012256;28;20030;-64
2022/03/16 08:47:26;;;;;;;36.58;19.65;;;7.40;98.90;;;;;;5011256;28;20029;-65
2022/03/16 08:49:54;;;;;;;34.92;18.45;;;7.50;98.80;;;;;;5012526;28;20038;-64
2022/03/16 08:52:20;;;;;;;35.63;18.30;;;7.50;98.80;;;;;;5004030;28;20037;-64
2022/03/16 08:54:46;;;;;;;38.45;19.88;;;7.60;98.80;;;;;;4994591;28;20378;-64
2022/03/16 08:57:11;;;;;;;39.72;20.92;;;7.70;98.80;;;;;;4996854;28;20021;-64
2022/03/16 08:59:38;;;;;;;39.75;20.65;;;7.70;98.70;;;;;;5012397;28;20041;-64
2022/03/16 09:02:04;;;;;;;37.92;19.02;;;7.90;98.70;;;;;;4997964;28;20030;-64
2022/03/16 09:04:30;;;;;;;31.92;17.88;;;8.00;98.50;;;;;;5007785;28;20136;-63
2022/03/16 09:06:59;;;;;;;33.58;18.67;;;8.00;98.30;;;;;;5012048;28;20030;-64
2022/03/16 09:09:25;;;;;;;34.30;17.70;;;7.90;98.30;;;;;;4998306;28;20489;-64
2022/03/16 09:11:50;;;;;;;37.17;19.65;;;7.90;98.40;;;;;;4994131;28;20030;-64
2022/03/16 09:14:16;;;;;;;35.65;18.35;;;7.90;98.50;;;;;;4993582;28;20053;-64
2022/03/16 09:16:44;;;;;;;33.67;18.65;;;8.00;98.60;;;;;;5008537;28;20042;-64
2022/03/16 09:19:10;;;;;;;32.20;18.48;;;8.00;98.50;;;;;;5005236;28;20032;-64
2022/03/16 09:21:35;;;;;;;28.65;15.52;;;8.00;98.50;;;;;;4998822;28;20026;-64
2022/03/16 09:24:01;;;;;;;30.92;16.73;;;8.10;98.40;;;;;;5006117;28;20113;-64
2022/03/16 09:26:28;;;;;;;34.38;18.95;;;8.20;98.50;;;;;;5008659;28;20050;-65
2022/03/16 09:28:55;;;;;;;34.38;17.02;;;8.30;98.30;;;;;;5011902;28;20041;-64
2022/03/16 09:31:21;;;;;;;30.73;17.58;;;8.40;98.20;;;;;;5004830;28;20465;-64
2022/03/16 09:33:46;;;;;;;29.50;16.05;;;8.50;98.20;;;;;;4982192;28;20030;-63
2022/03/16 09:36:12;;;;;;;27.85;15.05;;;8.60;98.00;;;;;;5000113;28;20161;-65
2022/03/16 09:38:38;;;;;;;29.92;16.40;;;8.70;97.90;;;;;;4992861;28;20374;-64
2022/03/16 09:41:04;;;;;;;30.50;16.17;;;8.60;97.80;;;;;;4999457;28;20120;-65
2022/03/16 09:43:35;;;;;;;30.15;15.52;;;8.60;98.00;;;;;;5004971;28;20117;-63
2022/03/16 09:46:12;;;;;;;32.53;17.15;;;8.70;97.80;;;;;;4998506;28;20038;-64
2022/03/16 09:48:41;;;;;;;38.72;20.20;;;8.70;97.80;;;;;;5001171;28;20034;-64
2022/03/16 09:51:09;;;;;;;38.08;17.85;;;8.70;97.80;;;;;;5009214;28;20034;-65
2022/03/16 09:53:35;;;;;;;36.60;17.05;;;8.70;97.80;;;;;;5008297;28;20397;-64
2022/03/16 09:56:01;;;;;;;29.88;15.57;;;8.60;97.80;;;;;;4999873;28;20490;-64
2022/03/16 09:58:27;;;;;;;26.25;15.43;;;8.70;97.90;;;;;;5008153;28;20103;-63
2022/03/16 10:00:53;;;;;;;23.52;14.25;;;8.70;97.90;;;;;;5016981;28;20486;-64
2022/03/16 10:03:22;;;;;;;27.52;17.35;;;8.70;97.80;;;;;;5004753;28;20470;-66
2022/03/16 10:05:48;;;;;;;32.38;18.27;;;8.60;98.10;;;;;;5009439;28;20096;-66
2022/03/16 10:08:14;;;;;;;32.13;18.65;;;8.50;98.00;;;;;;5006702;28;20133;-65
2022/03/16 10:13:25;;;;;;;32.55;16.80;;;8.50;98.10;;;;;;5004222;28;20088;-65
2022/03/16 10:15:52;;;;;;;24.17;14.30;;;8.60;98.20;;;;;;5002432;28;20030;-65
2022/03/16 10:18:22;;;;;;;23.02;12.55;;;8.50;98.10;;;;;;5003531;28;20061;-66
2022/03/16 10:20:48;;;;;;;23.67;12.70;;;8.50;98.10;;;;;;5000522;28;20404;-65
2022/03/16 10:23:24;;;;;;;30.83;14.52;;;8.60;98.00;;;;;;5004833;28;20022;-65
2022/03/16 10:25:51;;;;;;;29.83;15.13;;;8.70;98.00;;;;;;5005482;28;20393;-64
2022/03/16 10:28:20;;;;;;;31.23;17.30;;;8.70;98.00;;;;;;5007746;28;20038;-65
2022/03/16 10:30:56;;;;;;;32.70;16.80;;;8.80;97.90;;;;;;5002908;28;20062;-65
2022/03/16 10:33:33;;;;;;;39.33;16.25;;;8.90;97.80;;;;;;5008501;28;20557;-65
2022/03/16 10:36:16;;;;;;;29.52;16.42;;;9.00;97.80;;;;;;4999374;28;20463;-64
2022/03/16 10:39:00;;;;;;;29.08;14.60;;;9.00;97.50;;;;;;4991627;28;20030;-66
2022/03/16 10:47:16;;;;;;;26.38;14.52;;;9.10;97.50;;;;;;4994581;28;20394;-66
2022/03/16 10:49:45;;;;;;;26.95;14.38;;;9.10;97.40;;;;;;5009812;28;20462;-66
2022/03/16 10:52:18;;;;;;;27.50;15.32;;;9.20;97.40;;;;;;5009341;28;20485;-65
2022/03/16 10:54:45;;;;;;;30.90;17.15;;;9.20;97.30;;;;;;5011379;28;20107;-65
2022/03/16 10:57:13;;;;;;;28.60;16.27;;;9.20;97.20;;;;;;5009713;28;20391;-66
2022/03/16 10:59:43;;;;;;;30.13;16.77;;;9.30;97.20;;;;;;5011101;28;20038;-64
2022/03/16 11:02:12;;;;;;;31.58;16.95;;;9.30;97.20;;;;;;5010553;28;20041;-64
2022/03/16 11:04:43;;;;;;;29.83;17.23;;;9.40;97.10;;;;;;5011227;28;20137;-64
2022/03/16 11:07:09;;;;;;;29.35;16.25;;;9.40;97.10;;;;;;5010135;28;20437;-64
2022/03/16 11:09:35;;;;;;;26.10;16.20;;;9.60;97.00;;;;;;5011436;28;20074;-65
2022/03/16 11:14:51;;;;;;;21.42;13.75;;;9.80;96.80;;;;;;4991455;28;20037;-65
2022/03/16 11:17:18;;;;;;;23.67;13.88;;;9.80;96.40;;;;;;5007068;28;20470;-65
2022/03/16 11:19:51;;;;;;;22.60;13.95;;;9.70;96.30;;;;;;5011086;28;20573;-66
2022/03/16 11:22:23;;;;;;;29.45;16.23;;;9.60;96.30;;;;;;4993619;28;20144;-65
2022/03/16 11:24:58;;;;;;;27.70;16.17;;;9.50;96.30;;;;;;4989776;28;20096;-65
2022/03/16 11:27:34;;;;;;;28.08;16.15;;;9.50;96.40;;;;;;4991834;28;20487;-65
2022/03/16 11:30:29;;;;;;;25.50;16.13;;;9.60;96.50;;;;;;4991448;28;20042;-65
2022/03/16 11:33:08;;;;;;;23.63;14.60;;;9.60;96.50;;;;;;5004912;28;20065;-65
2022/03/16 11:35:35;;;;;;;29.77;14.30;;;9.50;96.50;;;;;;5010098;28;20212;-65
2022/03/16 11:38:12;;;;;;;23.45;12.50;;;9.40;96.50;;;;;;5011100;28;20537;-65
2022/03/16 11:40:47;;;;;;;20.33;13.07;;;9.40;96.50;;;;;;5009800;28;20033;-66
2022/03/16 11:43:24;;;;;;;24.75;14.35;;;9.50;96.50;;;;;;5008667;28;20512;-65
2022/03/16 11:45:55;;;;;;;25.58;13.48;;;9.50;96.60;;;;;;5010129;28;20034;-65
2022/03/16 11:48:26;;;;;;;22.00;12.60;;;9.60;96.50;;;;;;5009959;28;20037;-65
2022/03/16 11:51:13;;;;;;;23.85;13.48;;;9.60;96.50;;;;;;5009317;28;20470;-65
2022/03/16 11:56:24;;;;;;;22.58;13.35;;;9.80;96.40;;;;;;5000927;28;20096;-65
2022/03/16 11:58:54;;;;;;;23.95;13.57;;;9.80;96.40;;;;;;5011216;28;20038;-65
2022/03/16 12:01:29;;;;;;;23.83;13.05;;;9.80;96.40;;;;;;5005682;28;20030;-65
2022/03/16 12:04:12;;;;;;;21.92;12.52;;;9.70;96.40;;;;;;5010609;28;20053;-64
2022/03/16 12:07:01;;;;;;;24.92;13.25;;;9.70;96.40;;;;;;4998658;28;20517;-65
2022/03/16 12:09:51;;;;;;;21.38;12.60;;;9.80;96.40;;;;;;5007587;28;20049;-65
2022/03/16 12:15:11;;;;;;;25.30;13.77;;;9.80;96.40;;;;;;5010154;28;20030;-65
2022/03/16 12:17:41;;;;;;;23.45;13.73;;;9.90;96.40;;;;;;5010607;28;20022;-65
2022/03/16 12:20:16;;;;;;;22.98;13.73;;;9.90;96.40;;;;;;5013810;28;20045;-65
2022/03/16 12:22:47;;;;;;;25.27;14.43;;;10.00;96.40;;;;;;5013822;28;20022;-65
2022/03/16 12:25:29;;;;;;;26.30;14.18;;;10.10;96.30;;;;;;5012833;28;20033;-65
2022/03/16 12:30:52;;;;;;;29.43;15.90;;;10.20;96.20;;;;;;5012037;28;20108;-65
2022/03/16 12:33:22;;;;;;;23.92;13.68;;;10.20;96.10;;;;;;4994248;28;20034;-65
2022/03/16 12:36:18;;;;;;;22.55;13.85;;;10.30;96.10;;;;;;4998295;28;20057;-65
2022/03/16 12:38:47;;;;;;;21.00;13.60;;;10.30;95.90;;;;;;5012553;28;20052;-65
2022/03/16 12:44:01;;;;;;;21.40;13.23;;;10.40;95.80;;;;;;4994010;28;20447;-65
2022/03/16 12:46:33;;;;;;;23.52;14.00;;;10.40;95.80;;;;;;4996738;28;20046;-65
2022/03/16 12:49:11;;;;;;;28.15;14.93;;;10.40;95.70;;;;;;5010531;28;20125;-64
2022/03/16 12:51:45;;;;;;;27.55;14.80;;;10.50;95.70;;;;;;5010271;28;20068;-66
2022/03/16 12:54:12;;;;;;;27.15;17.05;;;10.50;95.60;;;;;;5013666;28;20069;-68
2022/03/16 12:56:43;;;;;;;30.48;15.57;;;10.60;95.60;;;;;;5010589;28;20048;-68
2022/03/16 12:59:09;;;;;;;30.65;17.05;;;10.70;95.60;;;;;;5013973;28;20033;-70